• pl
  • eng

Awiacja
Click on the bold red name to decode a message. 01:00 01.01.1970

METAR EPBY 211530Z 18014KT CAVOK 28/11 Q1005 =

METAR EPGD 211530Z 17016KT CAVOK 26/12 Q1003 =

METAR EPKK 211530Z 18003KT 150V210 CAVOK 26/12 Q1012 =

METAR EPKT 211530Z 20012KT CAVOK 26/10 Q1011 =

METAR EPLB 211530Z 17005KT CAVOK 24/14 Q1013 =

METAR EPLL 211530Z 18004KT 130V230 CAVOK 24/11 Q1009 =

METAR EPMO 211530Z 16008KT 130V190 CAVOK 26/10 Q1009 =

METAR EPPO 211530Z 17015KT CAVOK 28/11 Q1005 =

METAR EPRA 211530Z 19008KT CAVOK 24/12 Q1012=

METAR EPRZ 211530Z 18010KT CAVOK 25/11 Q1014 =

METAR EPSC 211530Z 22011KT 190V260 9999 FEW076CB 27/13 Q1001 =

METAR EPSY 211530Z 17012KT CAVOK 25/10 Q1009=

METAR EPWA 211530Z 17007KT CAVOK 25/12 Q1010 NOSIG=

METAR EPWR 211530Z 18012KT CAVOK 28/13 Q1007 =

METAR EPZG 211530Z NIL=
Awiacja.imgw.pl jest pogodowym serwisem informacyjnym
Instytutu Meteorologii i Gospodarki Wodnej Państwowego Instytutu Badawczego.
Copyright IMGW PIB 2009-2011© Wszelkie prawa zastrzeżone.